createdAt,value
2023-11-19T00:01:39.370Z,2.33
2023-11-19T00:04:23.816Z,1.78
2023-11-19T00:07:06.214Z,1.66
2023-11-19T00:09:45.972Z,1.85
2023-11-19T00:12:26.048Z,1.58
2023-11-19T00:15:05.855Z,1.47
2023-11-19T00:17:47.192Z,1.40
2023-11-19T00:20:31.899Z,1.76
2023-11-19T00:23:11.235Z,1.68
2023-11-19T00:25:50.597Z,1.49
2023-11-19T00:28:31.023Z,1.58
2023-11-19T00:31:10.511Z,1.42
2023-11-19T00:33:50.698Z,1.48
2023-11-19T00:36:35.287Z,1.40
2023-11-19T00:39:17.274Z,1.41
2023-11-19T00:41:56.624Z,1.43
2023-11-19T00:44:36.039Z,1.49
2023-11-19T00:47:15.389Z,1.47
2023-11-19T00:49:55.962Z,1.73
2023-11-19T00:52:40.389Z,1.67
2023-11-19T00:55:19.878Z,1.71
2023-11-19T00:57:59.312Z,1.58
2023-11-19T01:00:38.928Z,1.61
2023-11-19T01:03:19.143Z,1.62
2023-11-19T01:05:59.723Z,1.71
2023-11-19T01:08:44.157Z,1.93
2023-11-19T01:11:28.488Z,2.14
2023-11-19T01:14:07.850Z,2.44
2023-11-19T01:16:47.272Z,2.79
2023-11-19T01:19:26.686Z,2.57
2023-11-19T01:22:06.115Z,2.65
2023-11-19T01:24:50.520Z,2.64
2023-11-19T01:27:29.824Z,2.74
2023-11-19T01:30:11.849Z,2.99
2023-11-19T01:32:51.424Z,2.79
2023-11-19T01:35:30.795Z,2.89
2023-11-19T01:38:10.879Z,2.77
2023-11-19T01:40:55.248Z,2.21
2023-11-19T01:43:43.655Z,1.86
2023-11-19T01:46:23.081Z,1.82
2023-11-19T01:49:02.631Z,1.95
2023-11-19T01:51:42.397Z,1.83
2023-11-19T01:54:22.774Z,1.64
2023-11-19T01:57:07.390Z,1.63
2023-11-19T01:59:47.009Z,1.59
2023-11-19T02:02:28.606Z,1.66
2023-11-19T02:05:08.330Z,1.75
2023-11-19T02:07:48.607Z,1.66
2023-11-19T02:10:27.951Z,1.89
2023-11-19T02:13:15.838Z,1.63
2023-11-19T02:15:55.314Z,1.87
2023-11-19T02:18:36.224Z,2.38
2023-11-19T02:21:17.305Z,2.79
2023-11-19T02:24:08.868Z,2.89
2023-11-19T02:26:58.937Z,2.97
2023-11-19T02:29:43.305Z,2.99
2023-11-19T02:32:24.093Z,3.04
2023-11-19T02:37:47.359Z,2.50
2023-11-19T02:40:26.764Z,2.63
2023-11-19T02:43:07.287Z,2.54
2023-11-19T02:45:53.060Z,2.68
2023-11-19T02:48:32.951Z,2.45
2023-11-19T02:51:14.218Z,2.51
2023-11-19T02:53:53.540Z,2.49
2023-11-19T02:56:37.030Z,2.68
2023-11-19T02:59:29.220Z,2.42
2023-11-19T03:02:14.221Z,2.40
2023-11-19T03:04:53.667Z,2.47
2023-11-19T03:07:32.990Z,2.18
2023-11-19T03:10:15.902Z,2.67
2023-11-19T03:12:57.571Z,2.28
2023-11-19T03:15:36.930Z,2.10
2023-11-19T03:18:21.504Z,1.91
2023-11-19T03:21:00.867Z,1.89
2023-11-19T03:23:42.009Z,1.87
2023-11-19T03:26:21.372Z,1.60
2023-11-19T03:29:00.778Z,1.65
2023-11-19T03:31:40.728Z,1.73
2023-11-19T03:34:25.126Z,1.85
2023-11-19T03:37:05.399Z,1.87
2023-11-19T03:39:44.752Z,1.66
2023-11-19T03:42:24.081Z,1.67
2023-11-19T03:45:06.225Z,1.84
2023-11-19T03:47:46.103Z,1.65
2023-11-19T03:50:30.855Z,1.53
2023-11-19T03:53:10.444Z,1.66
2023-11-19T03:55:49.767Z,1.78
2023-11-19T03:58:29.093Z,1.82
2023-11-19T04:01:08.490Z,1.80
2023-11-19T04:03:51.435Z,1.69
2023-11-19T04:06:36.690Z,1.92
2023-11-19T04:09:15.976Z,1.59
2023-11-19T04:11:55.351Z,1.74
2023-11-19T04:14:35.746Z,1.90
2023-11-19T04:17:15.102Z,1.80
2023-11-19T04:19:54.466Z,1.95
2023-11-19T04:22:39.000Z,1.87
2023-11-19T04:25:19.001Z,1.88
2023-11-19T04:27:58.439Z,2.00
2023-11-19T04:30:39.377Z,2.00
2023-11-19T04:33:18.725Z,1.91
2023-11-19T04:35:58.207Z,1.81
2023-11-19T04:38:42.585Z,2.05
2023-11-19T04:41:21.934Z,2.05
2023-11-19T04:44:01.300Z,6.19
2023-11-19T04:46:40.675Z,4.09
2023-11-19T04:49:20.851Z,2.57
2023-11-19T04:52:00.427Z,2.61
2023-11-19T04:54:50.596Z,2.46
2023-11-19T04:57:29.972Z,3.13
2023-11-19T05:02:54.102Z,3.13
2023-11-19T05:05:33.628Z,3.18
2023-11-19T05:08:13.902Z,2.95
2023-11-19T05:10:59.966Z,3.04
2023-11-19T05:13:39.351Z,3.00
2023-11-19T05:16:19.787Z,3.14
2023-11-19T05:18:59.181Z,3.14
2023-11-19T05:21:38.586Z,2.80
2023-11-19T05:24:18.784Z,2.78
2023-11-19T05:27:03.182Z,3.16
2023-11-19T05:29:43.657Z,3.05
2023-11-19T05:32:23.347Z,2.61
2023-11-19T05:35:02.773Z,2.93
2023-11-19T05:37:42.483Z,3.28
2023-11-19T05:40:22.997Z,2.64
2023-11-19T05:43:07.422Z,2.17
2023-11-19T05:45:46.819Z,2.27
2023-11-19T05:48:26.161Z,2.10
2023-11-19T05:51:05.530Z,2.11
2023-11-19T05:53:44.852Z,1.97
2023-11-19T05:56:24.512Z,2.21
2023-11-19T05:59:11.509Z,6.69
2023-11-19T06:01:50.879Z,18.12
2023-11-19T06:04:30.333Z,4.08
2023-11-19T06:07:09.707Z,4.24
2023-11-19T06:09:49.116Z,4.44
2023-11-19T06:12:29.969Z,3.36
2023-11-19T06:15:16.115Z,1.90
2023-11-19T06:17:55.498Z,1.69
2023-11-19T06:23:18.783Z,1.68
2023-11-19T06:25:58.173Z,1.41
2023-11-19T06:28:38.539Z,1.20
2023-11-19T06:31:23.248Z,1.52
2023-11-19T06:34:02.667Z,2.62
2023-11-19T06:36:42.111Z,3.39
2023-11-19T06:39:22.406Z,3.07
2023-11-19T06:42:02.498Z,2.67
2023-11-19T06:44:41.813Z,2.01
2023-11-19T06:47:26.382Z,1.89
2023-11-19T06:50:07.746Z,2.33
2023-11-19T06:52:47.332Z,2.15
2023-11-19T06:55:26.686Z,1.72
2023-11-19T06:58:08.354Z,1.89
2023-11-19T07:00:49.493Z,1.76
2023-11-19T07:03:33.996Z,1.37
2023-11-19T07:06:15.261Z,0.88
2023-11-19T07:08:54.538Z,1.01
2023-11-19T07:11:33.901Z,1.96
2023-11-19T07:14:13.911Z,0.55
2023-11-19T07:16:53.571Z,0.61
2023-11-19T07:19:38.673Z,0.91
2023-11-19T07:22:18.073Z,1.11
2023-11-19T07:24:57.365Z,0.63
2023-11-19T07:27:36.682Z,1.00
2023-11-19T07:30:16.361Z,2.30
2023-11-19T07:32:55.964Z,3.05
2023-11-19T07:35:40.765Z,0.91
2023-11-19T07:38:20.557Z,1.29
2023-11-19T07:40:59.968Z,2.15
2023-11-19T07:43:39.390Z,0.94
2023-11-19T07:46:21.749Z,0.45
2023-11-19T07:49:01.339Z,0.57
2023-11-19T07:51:45.726Z,0.39
2023-11-19T07:54:25.048Z,0.96
2023-11-19T07:57:04.471Z,0.80
2023-11-19T07:59:43.867Z,0.76
2023-11-19T08:02:24.053Z,0.43
2023-11-19T08:05:03.523Z,0.39
2023-11-19T08:07:47.977Z,0.26
2023-11-19T08:10:27.322Z,0.31
2023-11-19T08:13:06.644Z,0.36
2023-11-19T08:15:45.955Z,0.31
2023-11-19T08:18:25.780Z,0.31
2023-11-19T08:21:07.136Z,0.20
2023-11-19T08:23:51.537Z,0.25
2023-11-19T08:26:31.580Z,0.41
2023-11-19T08:29:11.605Z,0.50
2023-11-19T08:31:50.939Z,0.48
2023-11-19T08:34:30.318Z,0.43
2023-11-19T08:37:09.746Z,0.91
2023-11-19T08:39:54.132Z,1.14
2023-11-19T08:42:33.534Z,0.84
2023-11-19T08:45:13.988Z,1.01
2023-11-19T08:47:53.325Z,1.57
2023-11-19T08:50:32.686Z,0.90
2023-11-19T08:53:12.305Z,0.85
2023-11-19T08:55:56.774Z,0.84
2023-11-19T08:58:36.126Z,0.48
2023-11-19T09:01:15.535Z,0.55
2023-11-19T09:03:55.047Z,0.43
2023-11-19T09:06:34.846Z,0.56
2023-11-19T09:09:14.284Z,1.05
2023-11-19T09:11:58.642Z,0.68
2023-11-19T09:14:38.024Z,0.40
2023-11-19T09:17:17.850Z,0.51
2023-11-19T09:19:57.398Z,0.45
2023-11-19T09:22:36.687Z,0.39
2023-11-19T09:25:19.085Z,0.45
2023-11-19T09:28:03.508Z,0.39
2023-11-19T09:30:42.875Z,0.81
2023-11-19T09:33:22.373Z,0.81
2023-11-19T09:36:01.764Z,0.62
2023-11-19T09:38:41.229Z,0.40
2023-11-19T09:41:21.732Z,0.40
2023-11-19T09:44:06.334Z,0.39
2023-11-19T09:46:46.836Z,0.45
2023-11-19T09:52:14.523Z,0.40
2023-11-19T09:54:54.103Z,0.37
2023-11-19T09:57:33.494Z,0.33
2023-11-19T10:00:19.748Z,0.46
2023-11-19T10:02:59.768Z,0.39
2023-11-19T10:05:40.527Z,0.36
2023-11-19T10:08:20.052Z,0.46
2023-11-19T10:10:59.918Z,0.40
2023-11-19T10:13:40.169Z,0.43
2023-11-19T10:16:26.773Z,0.36
2023-11-19T10:19:06.141Z,0.30
2023-11-19T10:21:45.771Z,0.44
2023-11-19T10:27:08.409Z,0.34
2023-11-19T10:29:47.828Z,0.41
2023-11-19T10:32:32.327Z,0.45
2023-11-19T10:35:15.984Z,0.58
2023-11-19T10:37:55.298Z,0.87
2023-11-19T10:40:47.400Z,0.27
2023-11-19T10:43:27.223Z,0.47
2023-11-19T10:46:23.351Z,0.33
2023-11-19T10:49:08.786Z,0.42
2023-11-19T10:51:54.342Z,0.43
2023-11-19T10:54:34.556Z,0.61
2023-11-19T10:57:20.795Z,0.49
2023-11-19T11:00:07.388Z,0.44
2023-11-19T11:02:52.156Z,0.61
2023-11-19T11:05:41.171Z,0.50
2023-11-19T11:08:20.548Z,0.27
2023-11-19T11:11:03.705Z,0.40
2023-11-19T11:13:46.894Z,0.36
2023-11-19T11:16:30.750Z,0.37
2023-11-19T11:19:11.537Z,0.46
2023-11-19T11:22:03.630Z,0.45
2023-11-19T11:25:18.690Z,0.36
2023-11-19T11:28:15.181Z,0.38
2023-11-19T11:31:09.885Z,0.43
2023-11-19T11:34:13.770Z,0.95
2023-11-19T11:37:13.919Z,1.02
2023-11-19T11:39:54.586Z,0.82
2023-11-19T11:42:41.389Z,0.46
2023-11-19T11:45:36.935Z,0.95
2023-11-19T11:48:29.114Z,1.89
2023-11-19T11:51:08.454Z,1.06
2023-11-19T11:53:56.828Z,0.39
2023-11-19T11:56:41.676Z,0.38
2023-11-19T11:59:27.373Z,0.45
2023-11-19T12:02:07.040Z,0.55
2023-11-19T12:04:49.050Z,0.53
2023-11-19T12:07:30.628Z,0.46
2023-11-19T12:10:20.091Z,0.39
2023-11-19T12:13:02.252Z,0.45
2023-11-19T12:15:41.977Z,0.47
2023-11-19T12:18:28.139Z,0.71
2023-11-19T12:21:09.751Z,0.51
2023-11-19T12:23:55.403Z,0.69
2023-11-19T12:26:47.533Z,0.53
2023-11-19T12:29:26.882Z,0.46
2023-11-19T12:34:49.858Z,0.43
2023-11-19T12:37:29.197Z,0.44
2023-11-19T12:40:08.668Z,0.50
2023-11-19T12:42:53.109Z,0.49
2023-11-19T12:45:32.504Z,0.53
2023-11-19T12:48:16.490Z,0.49
2023-11-19T12:51:03.870Z,0.66
2023-11-19T12:53:58.047Z,0.82
2023-11-19T12:56:38.786Z,0.77
2023-11-19T12:59:26.155Z,1.06
2023-11-19T13:02:08.111Z,0.43
2023-11-19T13:04:48.767Z,0.47
2023-11-19T13:07:31.122Z,0.37
2023-11-19T13:10:11.243Z,0.61
2023-11-19T13:12:51.412Z,0.51
2023-11-19T13:15:38.667Z,0.47
2023-11-19T13:18:18.242Z,0.34
2023-11-19T13:20:59.562Z,0.40
2023-11-19T13:23:38.866Z,0.49
2023-11-19T13:26:18.298Z,0.46
2023-11-19T13:28:57.867Z,0.53
2023-11-19T13:31:42.381Z,0.45
2023-11-19T13:34:21.776Z,0.61
2023-11-19T13:37:01.137Z,0.65
2023-11-19T13:39:40.549Z,0.58
2023-11-19T13:42:19.954Z,0.61
2023-11-19T13:44:59.270Z,0.57
2023-11-19T13:47:43.922Z,0.60
2023-11-19T13:50:25.212Z,0.52
2023-11-19T13:53:04.519Z,0.58
2023-11-19T13:55:43.855Z,0.60
2023-11-19T13:58:23.574Z,0.78
2023-11-19T14:01:03.062Z,0.75
2023-11-19T14:03:48.155Z,0.70
2023-11-19T14:06:27.593Z,0.56
2023-11-19T14:09:08.705Z,0.53
2023-11-19T14:11:48.174Z,1.12
2023-11-19T14:14:27.496Z,2.64
2023-11-19T14:19:55.200Z,2.52
2023-11-19T14:22:34.640Z,2.25
2023-11-19T14:25:14.982Z,1.22
2023-11-19T14:27:54.421Z,0.69
2023-11-19T14:30:33.887Z,0.55
2023-11-19T14:33:13.274Z,0.45
2023-11-19T14:35:57.746Z,1.01
2023-11-19T14:38:37.130Z,1.74
2023-11-19T14:41:11.441Z,0.55
2023-11-19T14:43:50.823Z,1.10
2023-11-19T14:46:30.295Z,1.36
2023-11-19T14:49:10.129Z,0.67
2023-11-19T14:51:54.788Z,0.93
2023-11-19T14:54:34.190Z,0.65
2023-11-19T14:57:14.319Z,0.93
2023-11-19T14:59:53.693Z,0.38
2023-11-19T15:02:33.059Z,0.55
2023-11-19T15:05:13.241Z,0.61
2023-11-19T15:07:58.059Z,0.63
2023-11-19T15:10:37.342Z,0.47
2023-11-19T15:13:16.772Z,0.40
2023-11-19T15:15:57.733Z,0.49
2023-11-19T15:18:37.151Z,0.60
2023-11-19T15:21:17.040Z,0.65
2023-11-19T15:24:01.513Z,0.52
2023-11-19T15:26:40.837Z,0.63
2023-11-19T15:29:22.135Z,0.95
2023-11-19T15:32:03.288Z,0.53
2023-11-19T15:34:43.873Z,0.50
2023-11-19T15:37:23.267Z,0.72
2023-11-19T15:40:10.273Z,0.57
2023-11-19T15:42:50.438Z,0.68
2023-11-19T15:45:29.831Z,0.57
2023-11-19T15:48:09.242Z,0.93
2023-11-19T15:50:49.143Z,0.97
2023-11-19T15:53:28.499Z,0.48
2023-11-19T15:56:13.529Z,1.06
2023-11-19T15:58:52.917Z,0.56
2023-11-19T16:01:33.037Z,0.70
2023-11-19T16:04:13.216Z,0.73
2023-11-19T16:06:52.602Z,0.64
2023-11-19T16:09:32.317Z,0.38
2023-11-19T16:12:16.994Z,0.55
2023-11-19T16:14:56.322Z,0.65
2023-11-19T16:17:37.493Z,0.98
2023-11-19T16:20:18.272Z,0.80
2023-11-19T16:22:57.591Z,0.72
2023-11-19T16:25:37.789Z,0.59
2023-11-19T16:28:23.257Z,0.49
2023-11-19T16:31:03.481Z,0.62
2023-11-19T16:33:42.875Z,0.58
2023-11-19T16:36:22.406Z,0.54
2023-11-19T16:41:45.044Z,0.54
2023-11-19T16:44:29.567Z,0.68
2023-11-19T16:47:09.399Z,0.74
2023-11-19T16:49:48.748Z,0.58
2023-11-19T16:52:29.402Z,0.67
2023-11-19T16:55:13.710Z,0.71
2023-11-19T16:57:53.012Z,0.68
2023-11-19T17:00:39.295Z,1.35
2023-11-19T17:03:18.745Z,1.08
2023-11-19T17:05:58.883Z,1.61
2023-11-19T17:08:40.312Z,1.45
2023-11-19T17:11:19.680Z,1.55
2023-11-19T17:13:59.458Z,1.28
2023-11-19T17:16:44.902Z,2.19
2023-11-19T17:19:24.324Z,1.59
2023-11-19T17:22:03.667Z,1.41
2023-11-19T17:24:43.359Z,3.39
2023-11-19T17:27:25.466Z,2.88
2023-11-19T17:30:06.980Z,2.29
2023-11-19T17:32:51.481Z,1.83
2023-11-19T17:35:31.122Z,0.98
2023-11-19T17:40:56.695Z,1.27
2023-11-19T17:43:36.070Z,0.73
2023-11-19T17:46:16.234Z,0.72
2023-11-19T17:49:01.196Z,0.82
2023-11-19T17:51:40.564Z,0.68
2023-11-19T17:54:21.249Z,0.59
2023-11-19T17:57:00.534Z,0.90
2023-11-19T17:59:39.946Z,1.03
2023-11-19T18:02:19.720Z,2.45
2023-11-19T18:05:04.292Z,0.97
2023-11-19T18:07:43.921Z,1.13
2023-11-19T18:10:23.843Z,1.07
2023-11-19T18:13:03.199Z,0.83
2023-11-19T18:15:42.573Z,0.81
2023-11-19T18:18:22.048Z,0.89
2023-11-19T18:21:06.529Z,0.95
2023-11-19T18:23:45.957Z,0.98
2023-11-19T18:26:44.470Z,0.98
2023-11-19T18:29:24.402Z,1.84
2023-11-19T18:32:04.620Z,1.25
2023-11-19T18:34:44.273Z,1.17
2023-11-19T18:37:28.646Z,0.99
2023-11-19T18:40:07.998Z,0.82
2023-11-19T18:42:47.311Z,0.99
2023-11-19T18:45:26.714Z,0.92
2023-11-19T18:48:08.283Z,0.98
2023-11-19T18:53:36.528Z,0.88
2023-11-19T18:56:16.516Z,1.10
2023-11-19T18:58:56.748Z,0.88
2023-11-19T19:01:36.046Z,1.13
2023-11-19T19:04:16.934Z,1.04
2023-11-19T19:06:56.369Z,0.98
2023-11-19T19:09:40.946Z,0.86
2023-11-19T19:12:20.256Z,0.97
2023-11-19T19:17:46.492Z,1.13
2023-11-19T19:20:25.944Z,1.76
2023-11-19T19:23:05.510Z,2.11
2023-11-19T19:25:49.939Z,1.03
2023-11-19T19:28:29.235Z,0.97
2023-11-19T19:31:08.688Z,1.18
2023-11-19T19:33:51.396Z,1.34
2023-11-19T19:36:30.702Z,1.38
2023-11-19T19:39:16.197Z,1.45
2023-11-19T19:42:00.928Z,2.60
2023-11-19T19:44:40.865Z,2.37
2023-11-19T19:47:20.373Z,2.09
2023-11-19T19:50:00.363Z,2.84
2023-11-19T19:52:41.508Z,2.64
2023-11-19T19:55:23.279Z,2.81
2023-11-19T19:58:09.844Z,2.07
2023-11-19T20:00:49.177Z,2.42
2023-11-19T20:03:29.527Z,3.45
2023-11-19T20:06:13.366Z,1.42
2023-11-19T20:08:52.684Z,2.16
2023-11-19T20:11:35.747Z,1.01
2023-11-19T20:14:25.133Z,0.95
2023-11-19T20:19:48.779Z,1.00
2023-11-19T20:22:28.108Z,1.15
2023-11-19T20:25:08.167Z,1.13
2023-11-19T20:27:47.591Z,1.10
2023-11-19T20:30:33.332Z,1.22
2023-11-19T20:33:12.971Z,1.19
2023-11-19T20:35:52.320Z,1.44
2023-11-19T20:38:31.748Z,1.26
2023-11-19T20:41:12.720Z,1.33
2023-11-19T20:43:52.174Z,1.37
2023-11-19T20:46:36.583Z,1.31
2023-11-19T20:49:15.965Z,1.17
2023-11-19T20:51:55.326Z,1.36
2023-11-19T20:57:18.107Z,1.48
2023-11-19T20:59:57.422Z,1.35
2023-11-19T21:02:42.097Z,1.49
2023-11-19T21:05:21.772Z,1.29
2023-11-19T21:08:02.064Z,1.19
2023-11-19T21:10:42.142Z,1.48
2023-11-19T21:13:21.496Z,1.63
2023-11-19T21:16:00.840Z,1.46
2023-11-19T21:18:45.339Z,1.50
2023-11-19T21:21:24.895Z,1.22
2023-11-19T21:24:04.237Z,1.58
2023-11-19T21:26:44.415Z,2.27
2023-11-19T21:29:23.838Z,1.80
2023-11-19T21:32:03.195Z,1.50
2023-11-19T21:34:48.098Z,1.65
2023-11-19T21:37:27.435Z,1.20
2023-11-19T21:40:08.310Z,1.24
2023-11-19T21:42:47.770Z,1.11
2023-11-19T21:45:27.311Z,1.35
2023-11-19T21:48:06.685Z,1.25
2023-11-19T21:50:51.114Z,1.31
2023-11-19T21:53:31.893Z,1.24
2023-11-19T21:56:13.463Z,1.52
2023-11-19T21:58:53.044Z,1.69
2023-11-19T22:01:32.459Z,1.41
2023-11-19T22:04:12.338Z,1.84
2023-11-19T22:06:56.924Z,1.40
2023-11-19T22:09:36.417Z,1.50
2023-11-19T22:12:16.465Z,1.40
2023-11-19T22:14:55.783Z,1.64
2023-11-19T22:17:35.620Z,1.49
2023-11-19T22:23:05.326Z,1.71
2023-11-19T22:25:44.998Z,1.49
2023-11-19T22:28:24.269Z,1.72
2023-11-19T22:31:04.277Z,1.57
2023-11-19T22:33:44.192Z,1.56
2023-11-19T22:36:25.018Z,1.08
2023-11-19T22:39:09.840Z,1.74
2023-11-19T22:41:49.226Z,1.50
2023-11-19T22:44:30.297Z,1.27
2023-11-19T22:47:10.098Z,1.75
2023-11-19T22:49:49.441Z,1.45
2023-11-19T22:52:28.723Z,1.77
2023-11-19T22:55:14.285Z,1.37
2023-11-19T23:00:39.224Z,1.58
2023-11-19T23:03:18.586Z,1.36
2023-11-19T23:05:57.951Z,1.51
2023-11-19T23:08:38.492Z,1.53
2023-11-19T23:11:23.205Z,1.54
2023-11-19T23:14:02.565Z,1.67
2023-11-19T23:16:47.585Z,1.67
2023-11-19T23:19:26.980Z,1.72
2023-11-19T23:22:07.687Z,1.91
2023-11-19T23:24:47.008Z,2.08
2023-11-19T23:27:31.433Z,1.73
2023-11-19T23:30:11.986Z,1.88
2023-11-19T23:32:51.456Z,1.90
2023-11-19T23:35:30.769Z,1.67
2023-11-19T23:38:11.150Z,1.75
2023-11-19T23:40:50.637Z,1.39
2023-11-19T23:43:35.984Z,1.69
2023-11-19T23:46:16.744Z,1.98
2023-11-19T23:48:59.736Z,1.68
2023-11-19T23:51:39.452Z,1.68
2023-11-19T23:54:18.747Z,1.45
2023-11-19T23:56:58.058Z,1.44
2023-11-19T23:59:42.423Z,1.74
